Latest Weather Observations for Coober Pedy Airport

IDS60801

Issued at 4:22 pm CDT Thursday 28 January 2021 (issued every 10 minutes, with the page automatically refreshed every 10 minutes)

About weather observations | Map of weather stations | Latest weather observations for SA | Other Formats
Station Details ID: 016090 Name: COOBER PEDY AIRPORT Lat: -29.03 Lon: 134.72 Height: 225.0 m
Data from the previous 72 hours. | See also: Recent months at Coober Pedy Airport
Date/Time
CDT
Temp
°C
App
Temp
°C
Dew
Point
°C
Rel
Hum
%
Delta-T
°C
Wind Press
QNH
hPa
Press
MSL
hPa
Rain since
9am
mm
Dir  Spd
km/h
Gust
km/h
Spd
kts
Gust
kts
28/04:00pm 32.0 33.6 17.9 43 9.1 SW 6 13 3 7 1007.0 1005.4 0.0
28/03:30pm 31.8 33.3 18.0 43 9.0 NNE 7 15 4 8 1007.2 1005.7 0.0
28/03:00pm 31.8 32.1 18.0 43 9.0 N 13 22 7 12 1007.4 1005.9 0.0
28/02:30pm 30.8 31.0 18.5 47 8.0 NNE 15 20 8 11 1007.8 1006.3 0.0
28/02:00pm 29.9 29.5 18.0 48 7.7 NE 17 26 9 14 1008.1 1006.5 0.0
28/01:30pm 29.3 30.5 19.9 57 6.2 NE 13 22 7 12 1008.4 1006.8 0.0
28/01:00pm 29.4 30.4 20.3 58 6.0 NE 15 20 8 11 1008.8 1007.2 0.0
28/12:30pm 28.4 29.2 19.9 60 5.6 NE 15 22 8 12 1009.3 1007.7 0.0
28/12:00pm 28.1 27.5 20.4 63 5.1 ENE 24 30 13 16 1009.1 1007.5 0.0
28/11:30am 26.4 26.8 20.9 72 3.7 E 20 26 11 14 1009.1 1007.5 0.0
28/11:00am 25.0 25.0 20.9 78 2.7 E 22 28 12 15 1009.4 1007.8 0.0
28/10:30am 24.3 24.1 21.2 83 2.1 ENE 24 28 13 15 1009.9 1008.3 0.0
28/10:00am 24.1 23.7 21.6 86 1.7 ENE 26 32 14 17 1009.8 1008.2 0.0
28/09:30am 23.3 23.5 21.4 89 1.3 ENE 22 28 12 15 1009.6 1008.0 0.0
28/09:00am 22.5 23.2 21.5 94 0.7 ENE 20 26 11 14 1009.6 1008.0 3.4
28/08:30am 21.9 22.0 21.2 96 0.5 ENE 22 28 12 15 1009.8 1008.2 3.4
28/08:00am 21.6 21.1 20.8 95 0.5 ENE 24 30 13 16 1009.5 1007.9 3.4
28/07:30am 21.3 21.7 19.9 92 0.9 ENE 17 22 9 12 1009.1 1007.5 3.4
28/07:00am 21.2 21.0 19.3 89 1.2 ENE 19 22 10 12 1008.6 1007.0 3.4
28/06:30am 21.0 21.2 19.3 90 1.1 ENE 17 20 9 11 1008.1 1006.5 3.4
28/06:00am 21.2 21.8 19.5 90 1.1 E 15 17 8 9 1008.1 1006.5 3.4
28/05:30am 21.5 21.6 19.2 87 1.5 ENE 17 19 9 10 1008.2 1006.6 3.4
28/05:00am 21.4 22.9 19.7 90 1.1 E 11 15 6 8 1008.5 1006.9 3.4
28/04:30am 20.8 21.7 20.0 95 0.5 NE 15 17 8 9 1008.4 1006.8 3.4
28/04:00am 20.7 21.3 20.2 97 0.3 NE 17 20 9 11 1008.6 1007.0 3.4
28/03:30am 20.9 21.4 20.1 95 0.5 NE 17 20 9 11 1008.7 1007.1 3.4
28/03:00am 20.9 22.4 20.6 98 0.2 ENE 13 17 7 9 1008.6 1007.0 3.4
28/02:30am 20.8 22.3 20.6 99 0.1 E 13 15 7 8 1008.8 1007.2 3.4
28/02:00am 20.8 22.3 20.6 99 0.1 E 13 15 7 8 1009.1 1007.5 3.4
28/01:30am 20.8 22.3 20.6 99 0.1 NE 13 15 7 8 1010.2 1008.6 3.4
28/01:00am 21.0 22.6 20.7 98 0.2 NNE 13 17 7 9 1010.4 1008.8 3.4
28/12:30am 21.3 22.2 20.8 97 0.3 N 17 20 9 11 1010.5 1008.9 3.2
28/12:00am 21.6 21.9 20.8 95 0.5 N 20 26 11 14 1010.3 1008.7 2.4
 
Date/Time
CDT
Temp
°C
App
Temp
°C
Dew
Point
°C
Rel
Hum
%
Delta-T
°C
Wind Press
QNH
hPa
Press
MSL
hPa
Rain since
9am
mm
Dir  Spd
km/h
Gust
km/h
Spd
kts
Gust
kts
27/11:30pm 22.3 23.0 21.6 96 0.5 NNE 20 24 11 13 1010.0 1008.4 2.0
27/11:00pm 22.7 23.6 21.9 95 0.5 NE 20 24 11 13 1009.7 1008.1 1.6
27/10:30pm 22.9 23.8 21.9 94 0.7 NE 20 26 11 14 1009.5 1007.9 1.4
27/10:00pm 23.3 22.9 21.7 91 1.1 NE 26 35 14 19 1009.2 1007.6 1.2
27/09:30pm 23.8 25.5 22.4 92 0.9 NNE 17 20 9 11 1009.4 1007.8 1.2
27/09:00pm 23.9 26.8 22.5 92 0.9 NNE 11 13 6 7 1009.1 1007.5 1.2
27/08:30pm 24.1 25.9 21.8 87 1.5 NE 15 20 8 11 1008.9 1007.3 0.8
27/08:00pm 24.8 26.2 21.9 84 1.9 NE 17 20 9 11 1008.8 1007.2 0.8
27/07:30pm 25.8 28.8 21.9 79 2.6 E 9 11 5 6 1008.8 1007.2 0.8
27/07:00pm 25.7 27.3 21.4 77 2.9 E 15 19 8 10 1008.3 1006.7 0.8
27/06:30pm 25.7 26.9 21.4 77 2.9 ENE 17 20 9 11 1008.1 1006.5 0.8
27/06:00pm 25.7 28.0 21.4 77 2.9 E 11 11 6 6 1008.4 1006.8 0.8
27/05:30pm 25.5 28.0 21.8 80 2.5 NE 11 15 6 8 1008.8 1007.2 0.6
27/05:00pm 26.7 28.3 20.8 70 3.9 ENE 13 17 7 9 1008.8 1007.2 0.0
27/04:30pm 27.5 28.4 20.1 64 4.9 NE 15 20 8 11 1008.5 1006.9 0.0
27/04:00pm 29.1 28.9 18.5 52 6.9 ENE 17 24 9 13 1008.7 1007.1 0.0
27/03:30pm 28.4 28.8 18.2 54 6.6 ENE 13 19 7 10 1008.8 1007.2 0.0
27/03:00pm 28.1 29.7 18.2 55 6.4 ENE 7 19 4 10 1009.2 1007.6 0.0
27/02:30pm 27.8 28.9 17.9 54 6.3 NE 9 15 5 8 1009.4 1007.8 0.0
27/02:00pm 27.7 28.5 17.3 53 6.6 NE 9 20 5 11 1009.7 1008.1 0.0
27/01:30pm 27.2 28.2 17.7 56 6.1 E 9 15 5 8 1009.9 1008.3 0.0
27/01:00pm 26.8 25.8 17.6 57 5.8 E 19 24 10 13 1009.8 1008.2 0.0
27/12:30pm 26.3 25.2 17.4 58 5.6 E 19 24 10 13 1009.9 1008.3 0.0
27/12:00pm 25.6 24.8 17.0 59 5.4 ENE 17 24 9 13 1010.1 1008.5 0.0
27/11:30am 25.7 24.3 17.1 59 5.4 ENE 20 32 11 17 1010.1 1008.5 0.0
27/11:00am 25.2 23.4 16.1 57 5.6 E 20 28 11 15 1010.0 1008.4 0.0
27/10:30am 25.1 21.2 15.4 55 5.9 E 30 37 16 20 1009.2 1007.6 0.0
27/10:00am 24.7 21.3 14.8 54 6.0 E 26 32 14 17 1008.9 1007.3 0.0
27/09:30am 23.8 21.6 14.5 56 5.6 ESE 19 26 10 14 1009.7 1008.1 0.0
27/09:00am 23.3 20.6 14.6 58 5.2 SE 22 30 12 16 1009.0 1007.4 0.0
27/08:30am 23.1 20.5 14.9 60 4.9 SE 22 28 12 15 1008.7 1007.1 0.0
27/08:00am 23.0 20.5 15.1 61 4.8 SE 22 28 12 15 1008.4 1006.8 0.0
27/07:30am 23.1 21.1 15.4 62 4.7 SE 20 26 11 14 1008.5 1006.9 0.0
27/07:00am 23.2 21.2 15.5 62 4.7 ESE 20 26 11 14 1008.5 1006.9 0.0
27/06:30am 23.5 20.9 15.8 62 4.7 ESE 24 33 13 18 1007.8 1006.3 0.0
27/06:00am 23.9 21.3 15.9 61 4.9 SE 24 32 13 17 1007.3 1005.8 0.0
27/05:30am 24.0 21.1 16.0 61 4.9 SE 26 32 14 17 1006.8 1005.2 0.0
27/05:00am 24.3 22.1 16.0 60 5.1 SE 22 26 12 14 1006.7 1005.1 0.0
27/04:30am 24.6 22.8 16.1 59 5.2 SE 20 30 11 16 1006.5 1004.9 0.0
27/04:00am 24.8 22.5 15.7 57 5.6 SE 22 30 12 16 1006.4 1004.8 0.0
27/03:30am 25.1 22.3 15.4 55 5.9 SE 24 32 13 17 1006.6 1005.0 0.0
27/03:00am 25.5 22.8 15.5 54 6.1 SE 24 32 13 17 1006.6 1005.0 0.0
27/02:30am 25.9 23.6 15.6 53 6.3 SE 22 28 12 15 1007.0 1005.4 0.0
27/02:00am 26.3 24.4 15.7 52 6.5 SE 20 26 11 14 1007.3 1005.8 0.0
27/01:30am 26.7 24.4 15.7 51 6.8 SE 22 26 12 14 1007.4 1005.9 0.0
27/01:00am 27.0 24.7 15.7 50 7.0 SE 22 26 12 14 1007.4 1005.9 0.0
27/12:30am 27.4 25.4 15.4 48 7.4 SSE 20 30 11 16 1007.5 1006.0 0.0
27/12:00am 27.8 26.8 15.5 47 7.6 SE 15 19 8 10 1007.4 1005.9 0.0
 
Date/Time
CDT
Temp
°C
App
Temp
°C
Dew
Point
°C
Rel
Hum
%
Delta-T
°C
Wind Press
QNH
hPa
Press
MSL
hPa
Rain since
9am
mm
Dir  Spd
km/h
Gust
km/h
Spd
kts
Gust
kts
26/11:30pm 28.1 27.1 15.7 46 7.7 SE 15 20 8 11 1007.4 1005.9 0.0
26/11:00pm 28.5 27.6 15.8 46 7.9 SSE 15 19 8 10 1007.1 1005.6 0.0
26/10:30pm 28.8 27.5 15.7 45 8.2 SE 17 20 9 11 1006.9 1005.3 0.0
26/10:00pm 29.1 27.3 16.0 45 8.2 SSE 20 24 11 13 1006.5 1004.9 0.0
26/09:30pm 29.3 27.0 15.8 44 8.4 S 22 26 12 14 1006.1 1004.5 0.0
26/09:00pm 29.5 26.8 15.6 43 8.7 S 24 28 13 15 1005.8 1004.2 0.0
26/08:30pm 29.8 27.1 15.5 42 8.9 S 24 33 13 18 1005.6 1004.0 0.0
26/08:00pm 30.4 28.1 15.7 41 9.2 SSW 22 28 12 15 1005.4 1003.8 0.0
26/07:30pm 30.5 28.6 15.8 41 9.2 S 20 28 11 15 1004.9 1003.3 0.0
26/07:00pm 30.5 27.9 15.8 41 9.2 S 24 32 13 17 1004.3 1002.7 0.0
26/06:30pm 31.3 29.4 15.7 39 9.8 S 20 28 11 15 1004.1 1002.5 0.0
26/06:00pm 30.9 29.0 15.7 39 9.5 SSE 20 35 11 19 1004.2 1002.6 0.0
26/05:30pm 31.2 28.3 16.0 40 9.6 SSW 26 35 14 19 1004.5 1002.9 0.0
26/05:00pm 32.1 30.5 16.0 38 10.2 S 19 32 10 17 1004.8 1003.2 0.0
26/04:30pm 30.5 28.4 16.1 41 9.1 SSE 22 32 12 17 1004.9 1003.3 0.0
26/04:00pm 31.2 29.3 16.8 42 9.2 SSW 22 39 12 21 1005.3 1003.7 0.0
26/03:30pm 30.6 28.2 17.3 45 8.5 SSW 26 41 14 22 1005.5 1003.9 0.0
26/03:18pm 31.4 28.8 17.7 44 8.8 SSW 28 48 15 26 1005.4 1003.8 0.0
26/03:00pm 30.9 28.6 17.6 45 8.6 SSW 26 39 14 21 1005.6 1004.0 0.0
26/02:30pm 30.1 28.3 17.9 48 7.9 SW 24 37 13 20 1005.8 1004.2 0.0
26/02:00pm 29.6 28.0 18.4 51 7.3 SSW 24 33 13 18 1005.9 1004.3 0.0
26/01:30pm 29.8 29.2 18.9 52 7.1 SSW 20 41 11 22 1006.0 1004.4 0.0
26/01:00pm 28.9 27.1 18.7 54 6.6 S 26 33 14 18 1006.3 1004.7 0.0
26/12:30pm 28.6 27.5 18.7 55 6.4 S 22 35 12 19 1006.5 1004.9 0.0
26/12:00pm 28.3 27.0 19.0 57 6.1 S 24 35 13 19 1006.4 1004.8 0.0
26/11:30am 27.6 26.6 19.7 62 5.2 S 24 33 13 18 1006.4 1004.8 0.0
26/11:00am 25.5 23.8 18.2 64 4.7 S 24 33 13 18 1006.6 1005.0 0.0
26/10:30am 25.3 24.0 19.0 68 4.1 S 24 32 13 17 1006.6 1005.0 0.0
26/10:00am 24.2 22.3 18.6 71 3.6 S 26 33 14 18 1006.8 1005.2 0.0
26/09:30am 23.4 21.6 18.7 75 3.0 S 26 32 14 17 1006.9 1005.3 0.0
26/09:00am 22.8 20.9 18.6 77 2.7 SSW 26 32 14 17 1006.6 1005.0 0.0
26/08:30am 21.6 19.2 18.2 81 2.1 SSW 28 33 15 18 1006.2 1004.6 0.0
26/08:00am 21.2 18.4 18.2 83 1.9 SSW 30 37 16 20 1005.7 1004.1 0.0
26/07:30am 21.3 19.7 18.3 83 1.9 S 24 32 13 17 1005.4 1003.8 0.0
26/07:00am 20.9 19.2 18.1 84 1.8 SSW 24 32 13 17 1005.2 1003.6 0.0
26/06:30am 21.1 19.0 18.1 83 1.9 SSW 26 33 14 18 1004.5 1002.9 0.0
26/06:00am 21.3 18.5 18.1 82 2.0 S 30 37 16 20 1003.5 1001.9 0.0
26/05:30am 21.8 19.8 18.2 80 2.3 S 26 32 14 17 1003.2 1001.7 0.0
26/05:00am 22.2 20.1 18.0 77 2.6 S 26 32 14 17 1002.7 1001.1 0.0
26/04:30am 22.9 19.6 18.0 74 3.1 S 32 39 17 21 1002.9 1001.3 0.0
26/04:00am 23.6 21.1 18.0 71 3.5 S 28 35 15 19 1002.7 1001.1 0.0
26/03:30am 24.0 21.5 18.0 69 3.8 S 28 35 15 19 1002.8 1001.2 0.0
26/03:00am 24.6 21.8 18.1 67 4.1 S 30 39 16 21 1002.6 1001.0 0.0
26/02:30am 25.3 22.4 18.0 64 4.7 S 30 37 16 20 1002.8 1001.2 0.0
26/02:00am 26.1 24.0 18.0 61 5.2 S 26 37 14 20 1002.8 1001.2 0.0
26/01:30am 27.0 23.1 17.8 57 5.9 S 35 41 19 22 1002.8 1001.2 0.0
26/01:00am 27.9 25.0 17.1 51 6.8 S 28 39 15 21 1002.8 1001.2 0.0
26/12:30am 28.6 24.8 16.8 48 7.5 S 32 37 17 20 1002.8 1001.2 0.0
26/12:00am 29.3 26.1 17.2 48 7.7 S 30 39 16 21 1002.6 1001.0 0.0
 
Date/Time
CDT
Temp
°C
App
Temp
°C
Dew
Point
°C
Rel
Hum
%
Delta-T
°C
Wind Press
QNH
hPa
Press
MSL
hPa
Rain since
9am
mm
Dir  Spd
km/h
Gust
km/h
Spd
kts
Gust
kts
25/11:30pm 29.9 26.4 17.4 47 8.0 S 32 41 17 22 1002.6 1001.0 0.0
25/11:00pm 30.4 27.4 17.8 46 8.1 S 30 37 16 20 1002.1 1000.5 0.0
25/10:30pm 30.1 31.5 22.5 63 5.2 SSE 19 26 10 14 1001.9 1000.3 0.0
25/10:00pm 30.2 31.1 22.6 63 5.2 SSE 22 28 12 15 1001.4 999.8 0.0
25/09:30pm 29.9 30.4 22.6 65 5.0 ESE 24 30 13 16 1001.0 999.4 0.0
25/09:00pm 30.9 30.5 23.0 62 5.5 SE 30 37 16 20 1000.4 998.8 0.0
25/08:57pm 31.1 30.8 23.2 63 5.5 SE 30 37 16 20 1000.3 998.7 0.0
25/08:30pm 32.9 29.9 21.4 50 7.9 SSE 39 46 21 25 999.5 997.9 0.0
25/08:00pm 33.8 31.5 21.2 47 8.6 S 35 48 19 26 998.6 997.0 0.0
25/07:53pm 34.2 30.9 20.9 45 9.0 SSW 39 52 21 28 998.5 996.9 0.0
25/07:33pm 35.8 32.3 19.7 39 10.8 SW 37 57 20 31 997.8 996.2 0.0
25/07:30pm 36.2 32.7 20.4 39 10.8 SW 39 52 21 28 997.9 996.3 0.0
25/07:00pm 35.9 32.3 20.2 40 10.6 SW 39 50 21 27 997.2 995.6 0.0
25/06:30pm 36.0 33.6 19.9 39 10.9 SW 32 43 17 23 997.1 995.5 0.0
25/06:00pm 36.3 34.5 18.8 35 11.7 SW 26 39 14 21 996.8 995.2 0.0
25/05:30pm 36.3 35.3 19.7 37 11.2 W 24 33 13 18 996.8 995.2 0.0
25/05:00pm 36.3 35.7 21.3 41 10.3 WSW 26 35 14 19 997.0 995.4 0.0
25/04:30pm 35.4 33.1 21.3 44 9.7 WSW 35 46 19 25 997.3 995.7 0.0

Other formats

Comma delimited format used in spreadsheet applications
http://www.bom.gov.au/fwo/IDS60801/IDS60801.95458.axf

JavaScript Object Notation format (JSON) in row-major order
http://www.bom.gov.au/fwo/IDS60801/IDS60801.95458.json

Data quality

Most of these data are generated automatically and are frequently updated. Quality checks on data are not normally performed. It is possible for incorrect values to appear. Refer to information at About Latest Weather Observations and please check the disclaimer before using these data.